createdAt,value
2018-06-23T00:00:01.508Z,13.60
2018-06-23T00:02:30.442Z,13.60
2018-06-23T00:04:59.266Z,13.70
2018-06-23T00:07:28.078Z,13.70
2018-06-23T00:09:57.314Z,13.70
2018-06-23T00:12:26.235Z,13.70
2018-06-23T00:14:55.451Z,13.70
2018-06-23T00:17:25.377Z,13.60
2018-06-23T00:19:54.462Z,13.60
2018-06-23T00:22:23.698Z,13.50
2018-06-23T00:24:52.919Z,13.50
2018-06-23T00:27:21.695Z,13.50
2018-06-23T00:29:50.504Z,13.40
2018-06-23T00:32:19.745Z,13.40
2018-06-23T00:34:48.502Z,13.40
2018-06-23T00:37:17.302Z,13.30
2018-06-23T00:42:14.872Z,13.30
2018-06-23T00:44:43.962Z,13.30
2018-06-23T00:47:12.884Z,13.40
2018-06-23T00:49:41.965Z,13.40
2018-06-23T00:54:39.406Z,13.50
2018-06-23T00:57:08.624Z,13.50
2018-06-23T00:59:41.746Z,13.60
2018-06-23T01:02:11.349Z,13.60
2018-06-23T01:04:41.282Z,13.60
2018-06-23T01:07:10.365Z,13.50
2018-06-23T01:09:39.446Z,13.50
2018-06-23T01:12:08.670Z,13.50
2018-06-23T01:14:37.848Z,13.50
2018-06-23T01:17:08.632Z,13.40
2018-06-23T01:19:37.990Z,13.40
2018-06-23T01:22:07.150Z,13.40
2018-06-23T01:24:36.321Z,13.30
2018-06-23T01:27:05.137Z,13.30
2018-06-23T01:29:34.310Z,13.20
2018-06-23T01:32:03.121Z,13.10
2018-06-23T01:34:32.326Z,13.10
2018-06-23T01:37:01.136Z,13.10
2018-06-23T01:39:29.912Z,13.00
2018-06-23T01:41:58.982Z,13.00
2018-06-23T01:44:28.114Z,12.90
2018-06-23T01:46:57.643Z,12.90
2018-06-23T01:49:26.747Z,12.90
2018-06-23T01:51:55.568Z,12.80
2018-06-23T01:54:25.347Z,12.80
2018-06-23T01:56:54.188Z,12.80
2018-06-23T02:01:51.897Z,12.80
2018-06-23T02:04:20.952Z,12.70
2018-06-23T02:06:49.740Z,12.70
2018-06-23T02:09:18.838Z,12.70
2018-06-23T02:11:47.615Z,12.70
2018-06-23T02:16:56.043Z,12.60
2018-06-23T02:19:30.270Z,12.70
2018-06-23T02:22:04.946Z,12.70
2018-06-23T02:24:39.282Z,12.70
2018-06-23T02:27:13.499Z,12.70
2018-06-23T02:29:48.104Z,12.10
2018-06-23T02:32:22.566Z,15.40
2018-06-23T02:34:57.091Z,12.70
2018-06-23T02:37:25.869Z,12.80
2018-06-23T02:39:55.405Z,12.80
2018-06-23T02:42:24.200Z,12.90
2018-06-23T02:44:52.942Z,12.90
2018-06-23T02:47:21.750Z,12.90
2018-06-23T02:49:51.055Z,12.90
2018-06-23T02:52:19.878Z,13.00
2018-06-23T02:57:17.141Z,12.90
2018-06-23T02:59:45.940Z,13.00
2018-06-23T03:02:15.151Z,13.00
2018-06-23T03:04:44.134Z,13.00
2018-06-23T03:07:12.902Z,13.00
2018-06-23T03:09:41.682Z,13.00
2018-06-23T03:14:39.025Z,13.00
2018-06-23T03:17:13.218Z,13.00
2018-06-23T03:19:42.152Z,13.10
2018-06-23T03:22:10.964Z,13.10
2018-06-23T03:24:40.258Z,13.00
2018-06-23T03:29:39.953Z,13.00
2018-06-23T03:32:09.224Z,13.10
2018-06-23T03:34:38.421Z,13.10
2018-06-23T03:37:07.699Z,13.10
2018-06-23T03:39:36.894Z,13.10
2018-06-23T03:42:05.945Z,13.10
2018-06-23T03:44:34.742Z,13.10
2018-06-23T03:47:03.858Z,13.10
2018-06-23T03:49:32.662Z,13.10
2018-06-23T03:52:02.166Z,13.10
2018-06-23T03:54:30.902Z,13.10
2018-06-23T03:56:59.978Z,13.10
2018-06-23T03:59:29.686Z,13.10
2018-06-23T04:01:59.163Z,13.10
2018-06-23T04:04:28.216Z,13.10
2018-06-23T04:06:56.975Z,13.00
2018-06-23T04:09:26.243Z,12.90
2018-06-23T04:11:55.634Z,12.80
2018-06-23T04:14:24.436Z,12.80
2018-06-23T04:16:53.770Z,12.70
2018-06-23T04:19:22.804Z,12.70
2018-06-23T04:21:52.455Z,12.70
2018-06-23T04:24:21.268Z,12.80
2018-06-23T04:26:50.489Z,12.80
2018-06-23T04:29:19.924Z,12.80
2018-06-23T04:34:17.298Z,12.90
2018-06-23T04:36:46.916Z,12.90
2018-06-23T04:39:15.991Z,13.00
2018-06-23T04:44:13.442Z,12.90
2018-06-23T04:46:42.223Z,12.90
2018-06-23T04:49:11.430Z,12.90
2018-06-23T04:51:40.240Z,12.80
2018-06-23T04:54:09.040Z,12.80
2018-06-23T04:56:38.608Z,12.80
2018-06-23T04:59:07.576Z,12.80
2018-06-23T05:01:36.360Z,12.80
2018-06-23T05:04:05.458Z,12.70
2018-06-23T05:06:34.566Z,12.70
2018-06-23T05:09:03.431Z,12.70
2018-06-23T05:11:32.591Z,12.70
2018-06-23T05:18:58.682Z,16.70
2018-06-23T05:21:28.618Z,12.80
2018-06-23T05:23:57.884Z,12.70
2018-06-23T05:26:26.650Z,12.80
2018-06-23T05:31:24.865Z,12.90
2018-06-23T05:33:53.831Z,15.80
2018-06-23T05:36:22.618Z,13.00
2018-06-23T05:41:20.494Z,13.00
2018-06-23T05:46:18.175Z,13.00
2018-06-23T05:48:46.941Z,13.10
2018-06-23T05:51:16.215Z,13.10
2018-06-23T05:53:45.003Z,13.00
2018-06-23T05:56:13.780Z,13.00
2018-06-23T05:58:44.088Z,13.10
2018-06-23T06:01:12.924Z,13.10
2018-06-23T06:03:41.726Z,13.10
2018-06-23T06:06:10.521Z,13.10
2018-06-23T06:08:39.285Z,13.10
2018-06-23T06:11:08.067Z,13.20
2018-06-23T06:13:37.089Z,13.30
2018-06-23T06:16:06.344Z,13.50
2018-06-23T06:18:36.035Z,13.50
2018-06-23T06:21:05.127Z,13.60
2018-06-23T06:23:33.863Z,13.60
2018-06-23T06:26:02.674Z,13.70
2018-06-23T06:28:31.853Z,13.70
2018-06-23T06:31:00.624Z,13.70
2018-06-23T06:33:29.791Z,13.70
2018-06-23T06:35:59.026Z,13.70
2018-06-23T06:38:28.028Z,13.60
2018-06-23T06:40:56.834Z,13.60
2018-06-23T06:43:25.908Z,13.60
2018-06-23T06:45:54.982Z,13.60
2018-06-23T06:48:24.090Z,13.50
2018-06-23T06:50:53.619Z,13.50
2018-06-23T06:53:22.321Z,13.50
2018-06-23T06:55:51.103Z,13.50
2018-06-23T06:58:19.878Z,13.50
2018-06-23T07:00:49.116Z,13.60
2018-06-23T07:03:18.301Z,13.60
2018-06-23T07:08:16.322Z,13.60
2018-06-23T07:10:45.132Z,13.70
2018-06-23T07:13:13.923Z,13.80
2018-06-23T07:15:42.700Z,13.80
2018-06-23T07:18:11.898Z,13.90
2018-06-23T07:20:42.049Z,12.70
2018-06-23T07:23:11.766Z,14.00
2018-06-23T07:25:41.207Z,14.00
2018-06-23T07:28:10.061Z,14.00
2018-06-23T07:30:40.148Z,14.00
2018-06-23T07:33:08.857Z,14.10
2018-06-23T07:35:38.402Z,14.20
2018-06-23T07:38:07.494Z,14.20
2018-06-23T07:40:36.729Z,14.30
2018-06-23T07:45:34.816Z,14.40
2018-06-23T07:48:03.985Z,14.30
2018-06-23T07:50:33.055Z,16.90
2018-06-23T07:55:31.499Z,14.40
2018-06-23T07:58:00.564Z,14.50
2018-06-23T08:00:29.330Z,14.80
2018-06-23T08:02:58.124Z,15.10
2018-06-23T08:10:24.163Z,16.80
2018-06-23T08:12:54.529Z,17.40
2018-06-23T08:15:23.620Z,18.00
2018-06-23T08:17:52.678Z,18.80
2018-06-23T08:20:22.375Z,20.00
2018-06-23T08:22:51.600Z,21.80
2018-06-23T08:25:20.501Z,23.00
2018-06-23T08:27:49.294Z,23.50
2018-06-23T08:35:16.484Z,24.70
2018-06-23T08:37:46.254Z,25.40
2018-06-23T08:40:15.104Z,25.60
2018-06-23T08:42:44.197Z,25.70
2018-06-23T08:45:13.389Z,25.90
2018-06-23T08:47:42.268Z,26.70
2018-06-23T08:50:11.388Z,25.30
2018-06-23T08:52:40.456Z,24.10
2018-06-23T08:55:09.218Z,23.40
2018-06-23T08:57:38.956Z,22.50
2018-06-23T09:02:37.031Z,21.30
2018-06-23T09:07:34.998Z,20.80
2018-06-23T09:22:27.745Z,21.00
2018-06-23T09:29:54.213Z,22.10
2018-06-23T09:34:51.636Z,22.40
2018-06-23T09:37:20.684Z,22.40
2018-06-23T09:44:48.101Z,20.60
2018-06-23T09:54:44.075Z,21.00
2018-06-23T10:04:40.132Z,19.70
2018-06-23T10:07:08.952Z,20.00
2018-06-23T10:09:37.692Z,20.80
2018-06-23T10:12:06.467Z,21.90
2018-06-23T10:24:30.538Z,21.90
2018-06-23T10:29:28.301Z,20.60
2018-06-23T10:44:19.901Z,20.90
2018-06-23T10:49:17.651Z,20.60
2018-06-23T10:51:46.418Z,20.50
2018-06-23T10:56:43.951Z,20.40
2018-06-23T11:09:08.828Z,19.60
2018-06-23T11:19:03.933Z,19.60
2018-06-23T11:21:33.608Z,19.50
2018-06-23T11:36:25.286Z,19.40
2018-06-23T11:38:54.502Z,19.30
2018-06-23T11:41:23.851Z,19.30
2018-06-23T11:46:21.639Z,19.10
2018-06-23T11:51:20.108Z,18.70
2018-06-23T11:53:48.965Z,18.60
2018-06-23T11:56:18.181Z,18.50
2018-06-23T12:06:13.419Z,18.40
2018-06-23T12:13:39.520Z,18.60
2018-06-23T12:18:37.126Z,18.80
2018-06-23T12:21:05.890Z,18.80
2018-06-23T12:23:35.099Z,18.60
2018-06-23T12:26:04.200Z,18.60
2018-06-23T12:28:32.987Z,18.60
2018-06-23T12:31:01.758Z,18.60
2018-06-23T12:38:27.702Z,18.70
2018-06-23T12:48:23.167Z,18.90
2018-06-23T12:50:51.911Z,18.80
2018-06-23T12:53:20.960Z,18.80
2018-06-23T13:05:44.291Z,18.70
2018-06-23T13:10:41.893Z,18.50
2018-06-23T13:13:10.982Z,18.40
2018-06-23T13:23:07.802Z,18.50
2018-06-23T13:30:34.906Z,18.70
2018-06-23T13:42:57.767Z,19.20
2018-06-23T13:45:26.842Z,19.40
2018-06-23T13:47:55.629Z,19.70
2018-06-23T13:50:24.876Z,19.90
2018-06-23T13:55:22.661Z,20.10
2018-06-23T13:57:52.279Z,20.00
2018-06-23T14:00:21.031Z,19.80
2018-06-23T14:10:16.317Z,18.90
2018-06-23T14:12:45.380Z,18.90
2018-06-23T14:17:42.990Z,18.70
2018-06-23T14:59:52.103Z,18.60
2018-06-23T15:02:21.376Z,18.60
2018-06-23T15:37:14.525Z,18.40
2018-06-23T15:47:09.051Z,18.70
2018-06-23T15:54:35.607Z,18.60
2018-06-23T15:57:04.893Z,18.50
2018-06-23T16:06:59.110Z,18.10
2018-06-23T16:09:27.899Z,18.00
2018-06-23T16:11:57.704Z,18.00
2018-06-23T16:14:26.467Z,17.90
2018-06-23T16:36:45.366Z,17.90
2018-06-23T16:39:15.078Z,17.90
2018-06-23T16:41:44.147Z,17.80
2018-06-23T16:44:12.921Z,17.70
2018-06-23T16:49:10.178Z,17.60
2018-06-23T16:54:08.202Z,17.60
2018-06-23T17:01:35.422Z,17.50
2018-06-23T17:09:01.946Z,17.40
2018-06-23T17:19:03.979Z,17.30
2018-06-23T17:24:01.393Z,17.20
2018-06-23T17:26:30.208Z,17.00
2018-06-23T17:43:50.855Z,16.90
2018-06-23T17:46:19.727Z,16.80
2018-06-23T17:53:47.053Z,16.80
2018-06-23T17:56:15.940Z,16.80
2018-06-23T17:58:45.576Z,16.70
2018-06-23T18:03:43.198Z,16.70
2018-06-23T18:08:41.155Z,16.60
2018-06-23T18:11:10.082Z,16.60
2018-06-23T18:13:39.187Z,16.60
2018-06-23T18:16:08.303Z,16.50
2018-06-23T18:28:37.685Z,16.30
2018-06-23T18:36:04.842Z,16.20
2018-06-23T18:38:33.729Z,16.10
2018-06-23T18:48:28.911Z,16.00
2018-06-23T18:50:57.758Z,16.00
2018-06-23T19:00:53.211Z,15.90
2018-06-23T19:13:16.228Z,15.80
2018-06-23T19:18:13.739Z,17.50
2018-06-23T19:20:42.979Z,15.80
2018-06-23T19:23:12.434Z,15.80
2018-06-23T19:25:41.246Z,15.80
2018-06-23T19:28:10.562Z,15.70
2018-06-23T19:35:38.062Z,15.70
2018-06-23T19:38:06.830Z,15.70
2018-06-23T19:43:04.877Z,15.70
2018-06-23T19:50:30.974Z,15.60
2018-06-23T20:00:25.998Z,15.60
2018-06-23T20:02:55.402Z,15.60
2018-06-23T20:07:52.971Z,15.60
2018-06-23T20:10:21.817Z,15.60
2018-06-23T20:17:47.935Z,15.60
2018-06-23T20:20:16.741Z,15.60
2018-06-23T20:25:14.235Z,15.60
2018-06-23T20:30:11.883Z,15.50
2018-06-23T20:35:10.067Z,15.50
2018-06-23T20:40:07.714Z,15.50
2018-06-23T20:42:36.857Z,15.50
2018-06-23T20:50:04.662Z,15.40
2018-06-23T20:52:33.442Z,15.40
2018-06-23T20:57:31.179Z,15.40
2018-06-23T21:12:23.290Z,15.40
2018-06-23T21:14:53.321Z,15.30
2018-06-23T21:17:22.255Z,15.40
2018-06-23T21:19:51.602Z,15.30
2018-06-23T21:27:18.951Z,15.30
2018-06-23T21:29:48.715Z,15.30
2018-06-23T21:37:15.646Z,15.30
2018-06-23T21:54:38.170Z,15.30
2018-06-23T21:57:07.676Z,15.20
2018-06-23T21:59:37.306Z,15.20
2018-06-23T22:14:29.342Z,15.10
2018-06-23T22:21:56.377Z,15.10
2018-06-23T22:24:25.565Z,15.10
2018-06-23T22:26:54.520Z,15.10
2018-06-23T22:29:24.946Z,15.10
2018-06-23T22:31:54.178Z,15.00
2018-06-23T22:34:23.036Z,15.00
2018-06-23T22:36:52.015Z,14.90
2018-06-23T22:44:19.842Z,14.80
2018-06-23T22:46:49.286Z,14.80
2018-06-23T22:49:18.479Z,18.60
2018-06-23T22:51:47.446Z,14.70
2018-06-23T22:54:16.232Z,14.70
2018-06-23T22:56:45.048Z,14.70
2018-06-23T22:59:14.354Z,14.70
2018-06-23T23:01:43.705Z,14.80
2018-06-23T23:04:13.637Z,14.70
2018-06-23T23:06:42.535Z,14.70
2018-06-23T23:09:11.494Z,14.70
2018-06-23T23:11:40.652Z,14.70
2018-06-23T23:14:10.519Z,14.70
2018-06-23T23:16:39.715Z,14.60
2018-06-23T23:19:08.547Z,14.60
2018-06-23T23:21:37.803Z,14.60
2018-06-23T23:24:06.912Z,14.60
2018-06-23T23:26:35.717Z,14.50
2018-06-23T23:29:04.639Z,14.50
2018-06-23T23:31:33.440Z,14.40
2018-06-23T23:34:02.201Z,14.30
2018-06-23T23:36:31.411Z,14.30
2018-06-23T23:39:01.060Z,14.20
2018-06-23T23:41:30.143Z,14.10
2018-06-23T23:46:28.668Z,14.00
2018-06-23T23:48:57.674Z,13.90
2018-06-23T23:51:26.454Z,13.90
2018-06-23T23:53:55.526Z,13.90
2018-06-23T23:56:24.299Z,13.80
